Terminal Aerodrome Forecast
Issued by NWS Caribou, ME

Home | Current Version | Previous Version | Text Only | Print | Product List | Glossary On
Versions: 1 2 3 4 5 6 7 8 9 10 11 12 13 14 15 16 17 18 19
000
FTUS41 KCAR 281726
TAFBGR
TAF
KBGR 281726Z 2818/2918 01010G17KT 6SM -SN OVC040
     FM290000 36009KT P6SM BKN060
     FM290400 34008KT P6SM SCT120 BKN220
     FM291000 VRB03KT P6SM SCT250
     FM291500 28007KT P6SM SKC=

USA.gov is the U.S. government's official web portal to all federal, state and local government web resources and services.